createdAt,value
2023-03-29T00:00:38.705Z,13260.6152
2023-03-29T00:01:40.139Z,13262.0000
2023-03-29T00:02:53.386Z,13270.8184
2023-03-29T00:03:43.066Z,13262.9092
2023-03-29T00:04:44.436Z,13258.9229
2023-03-29T00:05:45.945Z,13268.3848
2023-03-29T00:06:47.284Z,13261.9229
2023-03-29T00:07:48.729Z,13257.6924
2023-03-29T00:08:50.167Z,13261.0771
2023-03-29T00:09:51.563Z,13266.8457
2023-03-29T00:10:52.998Z,13254.0771
2023-03-29T00:11:54.422Z,13257.0000
2023-03-29T00:12:55.848Z,13256.6152
2023-03-29T00:13:57.298Z,13257.3076
2023-03-29T00:14:58.722Z,13260.4619
2023-03-29T00:16:00.145Z,13257.0771
2023-03-29T00:17:01.613Z,13255.0771
2023-03-29T00:18:02.999Z,13260.3848
2023-03-29T00:19:04.443Z,13262.9229
2023-03-29T00:20:05.854Z,13253.7695
2023-03-29T00:21:07.302Z,13252.6152
2023-03-29T00:22:08.741Z,13254.5381
2023-03-29T00:23:10.171Z,13250.2305
2023-03-29T00:24:11.560Z,13264.0000
2023-03-29T00:25:13.074Z,13256.8457
2023-03-29T00:26:14.489Z,13255.6152
2023-03-29T00:27:15.889Z,13259.2305
2023-03-29T00:28:17.336Z,13263.3076
2023-03-29T00:29:18.801Z,13250.3076
2023-03-29T00:30:20.159Z,13248.1543
2023-03-29T00:31:21.646Z,13249.0771
2023-03-29T00:32:23.051Z,13239.3848
2023-03-29T00:33:24.475Z,13231.6924
2023-03-29T00:34:25.899Z,13225.8457
2023-03-29T00:35:27.360Z,13225.6152
2023-03-29T00:36:28.771Z,13225.9229
2023-03-29T00:37:30.217Z,13220.8457
2023-03-29T00:38:31.773Z,13221.2305
2023-03-29T00:39:33.032Z,13219.3633
2023-03-29T00:40:34.466Z,13222.1543
2023-03-29T00:41:35.914Z,13214.4619
2023-03-29T00:42:37.363Z,13216.6152
2023-03-29T00:43:38.749Z,13225.0000
2023-03-29T00:44:40.171Z,13218.7695
2023-03-29T00:45:41.588Z,13215.3848
2023-03-29T00:46:43.117Z,13221.7695
2023-03-29T00:47:44.542Z,13223.4619
2023-03-29T00:48:45.922Z,13220.8457
2023-03-29T00:49:47.300Z,13218.6924
2023-03-29T00:50:48.772Z,13216.3076
2023-03-29T00:51:50.177Z,13215.0771
2023-03-29T00:52:51.602Z,13219.4619
2023-03-29T00:53:53.032Z,13226.3076
2023-03-29T00:54:54.457Z,13223.8457
2023-03-29T00:55:55.886Z,13228.0771
2023-03-29T00:56:57.430Z,13228.0771
2023-03-29T00:57:58.742Z,13223.5381
2023-03-29T00:59:00.172Z,13228.8457
2023-03-29T01:00:01.609Z,13225.0771
2023-03-29T01:01:03.316Z,13222.9229
2023-03-29T01:02:04.503Z,13221.5381
2023-03-29T01:03:05.961Z,13227.8457
2023-03-29T01:04:07.312Z,13228.3848
2023-03-29T01:05:08.719Z,13221.6152
2023-03-29T01:06:10.126Z,13223.8457
2023-03-29T01:07:11.632Z,13223.9229
2023-03-29T01:08:12.992Z,13225.0000
2023-03-29T01:09:14.428Z,13225.3848
2023-03-29T01:10:15.844Z,13223.9229
2023-03-29T01:11:17.524Z,13225.2305
2023-03-29T01:12:18.704Z,13224.9229
2023-03-29T01:13:20.110Z,13217.4619
2023-03-29T01:14:21.542Z,13228.8457
2023-03-29T01:15:23.020Z,13224.5381
2023-03-29T01:16:24.420Z,13226.3076
2023-03-29T01:17:25.919Z,13223.1543
2023-03-29T01:18:27.269Z,13215.6924
2023-03-29T01:19:28.726Z,13223.4619
2023-03-29T01:20:30.133Z,13224.6924
2023-03-29T01:21:31.610Z,13225.3076
2023-03-29T01:22:33.008Z,13220.3076
2023-03-29T01:23:34.431Z,13217.8457
2023-03-29T01:24:35.865Z,13213.8457
2023-03-29T01:25:37.293Z,13220.0000
2023-03-29T01:26:38.722Z,13223.5381
2023-03-29T01:27:40.160Z,13221.9229
2023-03-29T01:28:41.547Z,13213.6152
2023-03-29T01:29:42.992Z,13217.1543
2023-03-29T01:30:44.423Z,13216.1543
2023-03-29T01:31:45.976Z,13214.2305
2023-03-29T01:32:47.293Z,13219.1543
2023-03-29T01:33:48.738Z,13216.3848
2023-03-29T01:34:50.098Z,13218.3848
2023-03-29T01:35:51.589Z,13207.5381
2023-03-29T01:36:52.951Z,13210.8457
2023-03-29T01:37:54.450Z,13209.6152
2023-03-29T01:38:55.817Z,13215.1543
2023-03-29T01:39:57.254Z,13215.6152
2023-03-29T01:40:58.663Z,13212.5381
2023-03-29T01:42:00.102Z,13216.1543
2023-03-29T01:43:01.560Z,13215.4619
2023-03-29T01:44:03.011Z,13214.9229
2023-03-29T01:45:04.384Z,13214.3076
2023-03-29T01:46:05.830Z,13210.2305
2023-03-29T01:47:07.270Z,13216.8457
2023-03-29T01:48:08.691Z,13218.8457
2023-03-29T01:49:10.087Z,13216.3076
2023-03-29T01:50:11.550Z,13215.7695
2023-03-29T01:51:12.947Z,13217.6924
2023-03-29T01:52:14.391Z,13216.6152
2023-03-29T01:53:15.824Z,13216.9229
2023-03-29T01:54:17.244Z,13220.2305
2023-03-29T01:55:18.659Z,13217.2305
2023-03-29T01:56:20.101Z,13221.6924
2023-03-29T01:57:21.536Z,13221.8457
2023-03-29T01:58:22.946Z,13214.7695
2023-03-29T01:59:24.341Z,13219.2305
2023-03-29T02:00:25.796Z,13226.4619
2023-03-29T02:01:27.248Z,13229.1543
2023-03-29T02:02:28.754Z,13224.6924
2023-03-29T02:03:30.140Z,13228.0000
2023-03-29T02:04:31.492Z,13232.8457
2023-03-29T02:05:32.922Z,13229.0000
2023-03-29T02:06:34.445Z,13230.7695
2023-03-29T02:07:35.761Z,13231.0771
2023-03-29T02:08:37.229Z,13234.3848
2023-03-29T02:09:38.630Z,13236.3848
2023-03-29T02:10:40.080Z,13231.7695
2023-03-29T02:11:41.466Z,13230.6924
2023-03-29T02:12:42.929Z,13228.7695
2023-03-29T02:13:44.441Z,13235.5381
2023-03-29T02:14:45.867Z,13234.0000
2023-03-29T02:15:47.386Z,13233.3076
2023-03-29T02:16:48.702Z,13230.2305
2023-03-29T02:17:50.174Z,13233.3848
2023-03-29T02:18:51.543Z,13232.0000
2023-03-29T02:19:52.984Z,13229.6152
2023-03-29T02:20:54.398Z,13229.5381
2023-03-29T02:21:55.813Z,13231.7695
2023-03-29T02:22:57.278Z,13225.5381
2023-03-29T02:23:58.676Z,13226.2305
2023-03-29T02:25:00.132Z,13230.4619
2023-03-29T02:26:01.521Z,13228.0771
2023-03-29T02:27:02.949Z,13227.6924
2023-03-29T02:28:04.384Z,13224.6152
2023-03-29T02:29:05.806Z,13219.7695
2023-03-29T02:30:07.238Z,13217.9229
2023-03-29T02:31:08.687Z,13222.8457
2023-03-29T02:32:10.073Z,13227.1543
2023-03-29T02:33:11.625Z,13226.2305
2023-03-29T02:34:12.977Z,13221.6152
2023-03-29T02:35:14.339Z,13220.5381
2023-03-29T02:36:15.779Z,13220.2305
2023-03-29T02:37:17.193Z,13225.3848
2023-03-29T02:38:18.660Z,13223.7695
2023-03-29T02:39:20.049Z,13226.6152
2023-03-29T02:40:21.490Z,13227.5381
2023-03-29T02:41:22.893Z,13223.0000
2023-03-29T02:42:24.318Z,13227.1543
2023-03-29T02:43:26.139Z,13224.6152
2023-03-29T02:44:27.160Z,13217.8457
2023-03-29T02:45:28.618Z,13225.4619
2023-03-29T02:46:30.055Z,13222.6924
2023-03-29T02:47:31.506Z,13220.3848
2023-03-29T02:48:32.945Z,13221.9229
2023-03-29T02:49:34.309Z,13222.8457
2023-03-29T02:50:35.733Z,13224.8457
2023-03-29T02:51:37.160Z,13220.7695
2023-03-29T02:52:38.590Z,13218.1543
2023-03-29T02:53:40.052Z,13219.3076
2023-03-29T02:54:41.437Z,13212.0771
2023-03-29T02:55:42.964Z,13218.7695
2023-03-29T02:56:44.334Z,13215.3848
2023-03-29T02:57:45.755Z,13208.3848
2023-03-29T02:58:47.183Z,13222.2305
2023-03-29T02:59:48.604Z,13211.9229
2023-03-29T03:00:50.005Z,13214.1543
2023-03-29T03:01:51.512Z,13207.6152
2023-03-29T03:02:52.965Z,13208.5381
2023-03-29T03:03:54.354Z,13201.2305
2023-03-29T03:04:55.757Z,13213.5381
2023-03-29T03:05:57.161Z,13206.3076
2023-03-29T03:06:58.576Z,13196.7695
2023-03-29T03:08:00.013Z,13215.3076
2023-03-29T03:09:02.022Z,13216.3076
2023-03-29T03:10:02.887Z,13207.3848
2023-03-29T03:11:04.507Z,13211.0000
2023-03-29T03:12:05.734Z,13203.4619
2023-03-29T03:13:07.168Z,13192.6924
2023-03-29T03:14:08.606Z,13198.4619
2023-03-29T03:15:10.024Z,13205.7695
2023-03-29T03:16:11.456Z,13207.3848
2023-03-29T03:17:12.859Z,13205.7695
2023-03-29T03:18:14.294Z,13204.6924
2023-03-29T03:19:15.740Z,13202.3848
2023-03-29T03:20:17.147Z,13200.0000
2023-03-29T03:21:18.589Z,13194.5381
2023-03-29T03:22:20.006Z,13195.2305
2023-03-29T03:23:21.489Z,13204.7695
2023-03-29T03:24:22.860Z,13200.6924
2023-03-29T03:25:24.259Z,13201.7695
2023-03-29T03:26:25.692Z,13201.1543
2023-03-29T03:27:27.147Z,13192.7695
2023-03-29T03:28:28.653Z,13194.2305
2023-03-29T03:29:30.006Z,13195.1543
2023-03-29T03:30:31.464Z,13206.0771
2023-03-29T03:31:32.928Z,13204.0000
2023-03-29T03:32:34.327Z,13197.1543
2023-03-29T03:33:35.726Z,13195.6152
2023-03-29T03:34:37.148Z,13196.6152
2023-03-29T03:35:38.589Z,13190.5381
2023-03-29T03:36:39.984Z,13178.3848
2023-03-29T03:37:41.408Z,13171.0771
2023-03-29T03:38:42.869Z,13156.6152
2023-03-29T03:39:44.274Z,13150.6152
2023-03-29T03:40:45.702Z,13144.4619
2023-03-29T03:41:47.155Z,13146.8457
2023-03-29T03:42:48.541Z,13148.9229
2023-03-29T03:43:49.970Z,13135.0771
2023-03-29T03:44:51.427Z,13132.0000
2023-03-29T03:45:52.927Z,13133.1543
2023-03-29T03:46:54.251Z,13135.6924
2023-03-29T03:47:55.675Z,13138.8457
2023-03-29T03:48:57.161Z,13145.0000
2023-03-29T03:49:58.534Z,13144.4619
2023-03-29T03:51:00.052Z,13144.2305
2023-03-29T03:52:01.389Z,13140.7695
2023-03-29T03:53:02.808Z,13144.0771
2023-03-29T03:54:04.292Z,13142.0000
2023-03-29T03:55:05.691Z,13140.9229
2023-03-29T03:56:07.090Z,13143.5381
2023-03-29T03:57:08.528Z,13145.6924
2023-03-29T03:58:09.962Z,13141.5381
2023-03-29T03:59:11.400Z,13146.1543
2023-03-29T04:00:12.804Z,13148.6152
2023-03-29T04:01:14.237Z,13146.0000
2023-03-29T04:02:15.735Z,13144.3076
2023-03-29T04:03:17.263Z,13144.0000
2023-03-29T04:04:18.552Z,13145.8457
2023-03-29T04:05:20.024Z,13144.2305
2023-03-29T04:06:21.363Z,13140.0771
2023-03-29T04:07:22.820Z,13147.3076
2023-03-29T04:08:24.233Z,13146.7695
2023-03-29T04:09:25.696Z,13146.1543
2023-03-29T04:10:27.100Z,13152.9229
2023-03-29T04:11:28.538Z,13151.3076
2023-03-29T04:12:29.981Z,13153.0000
2023-03-29T04:13:31.384Z,13148.5381
2023-03-29T04:14:32.808Z,13142.0000
2023-03-29T04:15:34.304Z,13153.2305
2023-03-29T04:16:35.663Z,13144.7695
2023-03-29T04:17:37.201Z,13144.6152
2023-03-29T04:18:38.593Z,13137.9229
2023-03-29T04:19:39.988Z,13139.9229
2023-03-29T04:20:41.376Z,13139.6924
2023-03-29T04:21:42.823Z,13137.9229
2023-03-29T04:22:44.325Z,13139.2305
2023-03-29T04:23:45.678Z,13137.5381
2023-03-29T04:24:47.100Z,13138.6924
2023-03-29T04:25:48.528Z,13136.7695
2023-03-29T04:26:49.958Z,13135.8457
2023-03-29T04:27:51.389Z,13138.0000
2023-03-29T04:28:52.797Z,13143.5381
2023-03-29T04:29:54.267Z,13140.9229
2023-03-29T04:30:55.658Z,13140.2305
2023-03-29T04:31:57.096Z,13139.0771
2023-03-29T04:32:58.606Z,13139.1543
2023-03-29T04:34:00.514Z,13134.7695
2023-03-29T04:35:01.441Z,13130.0771
2023-03-29T04:36:02.837Z,13136.2305
2023-03-29T04:37:04.220Z,13141.0000
2023-03-29T04:38:05.652Z,13137.2305
2023-03-29T04:39:07.104Z,13143.9229
2023-03-29T04:40:08.540Z,13140.1543
2023-03-29T04:41:10.963Z,13139.9004
2023-03-29T04:42:11.459Z,13146.2305
2023-03-29T04:43:12.804Z,13148.2305
2023-03-29T04:44:14.218Z,13145.3848
2023-03-29T04:45:15.722Z,13146.6152
2023-03-29T04:46:17.148Z,13147.4619
2023-03-29T04:47:18.500Z,13148.8457
2023-03-29T04:48:19.937Z,13146.4619
2023-03-29T04:49:21.802Z,13147.3076
2023-03-29T04:50:22.797Z,13150.3848
2023-03-29T04:51:24.237Z,13147.4619
2023-03-29T04:52:25.662Z,13149.7695
2023-03-29T04:53:27.080Z,13149.5381
2023-03-29T04:54:28.536Z,13157.4619
2023-03-29T04:55:29.925Z,13154.4619
2023-03-29T04:56:31.375Z,13150.3076
2023-03-29T04:57:32.793Z,13155.6152
2023-03-29T04:58:34.230Z,13164.2305
2023-03-29T04:59:35.664Z,13170.6924
2023-03-29T05:00:37.090Z,13166.6152
2023-03-29T05:01:42.738Z,13168.8457
2023-03-29T05:02:39.316Z,13250.1426
2023-03-29T05:03:41.365Z,13386.7139
2023-03-29T05:04:42.873Z,13482.2305
2023-03-29T05:05:44.211Z,13621.0771
2023-03-29T05:06:45.632Z,13698.7695
2023-03-29T05:07:47.083Z,13813.0771
2023-03-29T05:08:48.471Z,13899.9229
2023-03-29T05:09:49.924Z,13845.7695
2023-03-29T05:10:51.325Z,13491.4619
2023-03-29T05:11:52.772Z,13397.3076
2023-03-29T05:12:54.461Z,13446.3076
2023-03-29T05:13:55.633Z,13520.5381
2023-03-29T05:14:57.013Z,13397.5381
2023-03-29T05:15:58.490Z,13236.7695
2023-03-29T05:16:59.905Z,13102.5381
2023-03-29T05:18:01.374Z,13086.2305
2023-03-29T05:19:02.755Z,13105.3076
2023-03-29T05:20:04.182Z,13064.4619
2023-03-29T05:21:05.613Z,13050.3848
2023-03-29T05:22:07.044Z,13062.0771
2023-03-29T05:23:08.426Z,13067.0771
2023-03-29T05:24:09.909Z,13095.4619
2023-03-29T05:25:11.318Z,13148.3848
2023-03-29T05:26:12.729Z,13181.6924
2023-03-29T05:27:14.181Z,13175.2305
2023-03-29T05:28:15.589Z,13211.0000
2023-03-29T05:29:17.017Z,13258.7695
2023-03-29T05:30:18.433Z,13416.4619
2023-03-29T05:31:19.919Z,13445.2305
2023-03-29T05:32:22.097Z,13412.6152
2023-03-29T05:33:22.749Z,13465.6924
2023-03-29T05:34:24.155Z,13433.3076
2023-03-29T05:35:25.545Z,13415.2305
2023-03-29T05:36:26.993Z,13397.8457
2023-03-29T05:37:28.404Z,13375.7695
2023-03-29T05:38:29.829Z,13375.6152
2023-03-29T05:39:31.253Z,13375.2305
2023-03-29T05:40:32.725Z,13380.0000
2023-03-29T05:41:34.116Z,13384.9229
2023-03-29T05:42:35.552Z,13387.6152
2023-03-29T05:43:37.000Z,13392.9229
2023-03-29T05:44:38.454Z,13340.8457
2023-03-29T05:45:39.818Z,13281.0000
2023-03-29T05:46:41.305Z,13355.3848
2023-03-29T05:47:42.847Z,13379.0771
2023-03-29T05:48:44.079Z,13368.1543
2023-03-29T05:49:45.639Z,13365.0771
2023-03-29T05:50:47.040Z,13369.6152
2023-03-29T05:51:48.377Z,13380.2305
2023-03-29T05:52:49.783Z,13358.6924
2023-03-29T05:53:51.215Z,13339.1543
2023-03-29T05:54:52.633Z,13362.9229
2023-03-29T05:55:54.106Z,13368.0771
2023-03-29T05:56:55.534Z,13362.8457
2023-03-29T05:57:56.925Z,13373.6152
2023-03-29T05:58:58.363Z,13376.4619
2023-03-29T05:59:59.818Z,13370.6152
2023-03-29T06:01:01.479Z,13367.1543
2023-03-29T06:02:02.737Z,13335.5381
2023-03-29T06:03:17.651Z,13303.8457
2023-03-29T06:04:05.504Z,13302.0000
2023-03-29T06:05:06.996Z,13291.6924
2023-03-29T06:06:08.343Z,13289.4619
2023-03-29T06:07:09.785Z,13274.3848
2023-03-29T06:08:11.210Z,13271.6152
2023-03-29T06:09:12.628Z,13267.2305
2023-03-29T06:10:14.064Z,13283.8457
2023-03-29T06:11:15.468Z,13275.2305
2023-03-29T06:12:16.931Z,13278.5381
2023-03-29T06:13:18.328Z,13278.2305
2023-03-29T06:14:19.755Z,13281.4619
2023-03-29T06:15:21.313Z,13301.6924
2023-03-29T06:16:22.765Z,13317.3848
2023-03-29T06:17:24.219Z,13317.8457
2023-03-29T06:18:25.565Z,13319.0000
2023-03-29T06:19:26.974Z,13310.4619
2023-03-29T06:20:28.400Z,13326.1543
2023-03-29T06:21:29.829Z,13329.4619
2023-03-29T06:22:31.250Z,13324.1543
2023-03-29T06:23:32.666Z,13334.3076
2023-03-29T06:24:34.087Z,13341.7695
2023-03-29T06:25:35.514Z,13381.3848
2023-03-29T06:26:36.962Z,13402.0771
2023-03-29T06:27:38.377Z,13413.6924
2023-03-29T06:28:39.782Z,13448.3076
2023-03-29T06:29:41.249Z,13431.6924
2023-03-29T06:30:42.642Z,13445.4619
2023-03-29T06:31:44.154Z,13482.0771
2023-03-29T06:32:45.554Z,13494.7695
2023-03-29T06:33:46.965Z,13507.7695
2023-03-29T06:34:48.362Z,13521.0000
2023-03-29T06:35:49.907Z,13535.4619
2023-03-29T06:36:51.202Z,13575.8457
2023-03-29T06:37:52.644Z,13582.4619
2023-03-29T06:38:54.082Z,13599.6152
2023-03-29T06:39:55.505Z,13610.2305
2023-03-29T06:40:56.948Z,13637.8457
2023-03-29T06:41:58.351Z,13672.4619
2023-03-29T06:42:59.762Z,13697.7695
2023-03-29T06:44:01.218Z,13770.6152
2023-03-29T06:45:02.666Z,13759.5381
2023-03-29T06:46:04.138Z,13790.5381
2023-03-29T06:47:05.577Z,13767.5381
2023-03-29T06:48:06.972Z,13770.0771
2023-03-29T06:49:08.350Z,13766.0000
2023-03-29T06:50:09.798Z,13768.2305
2023-03-29T06:51:11.201Z,13761.9229
2023-03-29T06:52:12.665Z,13744.5381
2023-03-29T06:53:14.060Z,13741.3076
2023-03-29T06:54:15.469Z,13727.6924
2023-03-29T06:55:16.878Z,13719.6924
2023-03-29T06:56:18.335Z,13707.6924
2023-03-29T06:57:19.848Z,13700.0000
2023-03-29T06:58:21.175Z,13695.8457
2023-03-29T06:59:22.628Z,13692.2305
2023-03-29T07:00:24.038Z,13671.0771
2023-03-29T07:01:25.486Z,13700.8457
2023-03-29T07:02:26.947Z,13690.1543
2023-03-29T07:03:28.319Z,13677.3076
2023-03-29T07:04:29.831Z,13652.1543
2023-03-29T07:05:31.174Z,13682.8457
2023-03-29T07:06:32.605Z,13676.2305
2023-03-29T07:07:34.028Z,13680.0000
2023-03-29T07:08:35.442Z,13691.4619
2023-03-29T07:09:36.874Z,13698.4619
2023-03-29T07:10:38.357Z,13689.7695
2023-03-29T07:11:39.747Z,13684.9229
2023-03-29T07:12:41.146Z,13685.3848
2023-03-29T07:13:42.807Z,13675.0771
2023-03-29T07:14:46.242Z,13670.5381
2023-03-29T07:15:45.425Z,13665.5381
2023-03-29T07:16:47.104Z,13664.0000
2023-03-29T07:17:48.289Z,13656.6152
2023-03-29T07:18:49.701Z,13658.5381
2023-03-29T07:19:51.109Z,13654.7695
2023-03-29T07:20:52.594Z,13654.3848
2023-03-29T07:21:54.014Z,13661.0771
2023-03-29T07:22:55.405Z,13659.5381
2023-03-29T07:23:56.820Z,13650.6152
2023-03-29T07:24:58.244Z,13654.7695
2023-03-29T07:25:59.649Z,13652.3076
2023-03-29T07:27:04.486Z,13648.3076
2023-03-29T07:28:02.499Z,13645.2305
2023-03-29T07:29:03.925Z,13644.6924
2023-03-29T07:30:05.348Z,13644.7695
2023-03-29T07:31:06.814Z,13639.8457
2023-03-29T07:32:08.290Z,13640.3076
2023-03-29T07:33:09.782Z,13640.0000
2023-03-29T07:34:11.134Z,13634.8457
2023-03-29T07:35:12.529Z,13635.9229
2023-03-29T07:36:13.993Z,13636.6152
2023-03-29T07:37:15.371Z,13643.0771
2023-03-29T07:38:16.828Z,13644.3076
2023-03-29T07:39:18.206Z,13639.5381
2023-03-29T07:40:19.639Z,13639.0771
2023-03-29T07:41:21.050Z,13640.7695
2023-03-29T07:42:22.493Z,13637.0771
2023-03-29T07:43:23.902Z,13635.3076
2023-03-29T07:44:25.333Z,13634.6924
2023-03-29T07:45:28.587Z,13633.5381
2023-03-29T07:46:28.225Z,13629.3848
2023-03-29T07:47:29.649Z,13631.2305
2023-03-29T07:48:31.024Z,13630.1543
2023-03-29T07:49:32.464Z,13627.5381
2023-03-29T07:50:33.877Z,13633.7695
2023-03-29T07:51:35.315Z,13626.6924
2023-03-29T07:52:36.735Z,13630.0000
2023-03-29T07:53:38.174Z,13619.3076
2023-03-29T07:54:39.600Z,13622.3848
2023-03-29T07:55:41.001Z,13620.3076
2023-03-29T07:56:42.449Z,13614.3076
2023-03-29T07:57:43.857Z,13572.1543
2023-03-29T07:58:45.297Z,13553.5381
2023-03-29T07:59:46.723Z,13524.5381
2023-03-29T08:00:48.151Z,13535.0771
2023-03-29T08:01:49.567Z,13509.3848
2023-03-29T08:02:51.025Z,13462.3848
2023-03-29T08:03:52.550Z,13482.8457
2023-03-29T08:04:54.032Z,13540.6152
2023-03-29T08:05:55.283Z,13563.9229
2023-03-29T08:06:56.695Z,13562.3848
2023-03-29T08:07:58.125Z,13560.0000
2023-03-29T08:08:59.554Z,13529.4619
2023-03-29T08:10:01.001Z,13507.3848
2023-03-29T08:11:02.585Z,13487.7695
2023-03-29T08:12:03.822Z,13701.0771
2023-03-29T08:13:05.257Z,13653.2305
2023-03-29T08:14:06.710Z,13486.9229
2023-03-29T08:15:08.194Z,13619.3848
2023-03-29T08:16:09.542Z,13705.6924
2023-03-29T08:17:11.050Z,13679.0771
2023-03-29T08:18:12.470Z,13589.3076
2023-03-29T08:19:13.810Z,13408.1543
2023-03-29T08:20:15.249Z,13448.5381
2023-03-29T08:21:16.665Z,13451.8457
2023-03-29T08:22:18.102Z,13453.1543
2023-03-29T08:23:19.538Z,13457.8457
2023-03-29T08:24:21.174Z,13457.0771
2023-03-29T08:25:22.383Z,13456.0771
2023-03-29T08:26:23.803Z,13456.9229
2023-03-29T08:27:25.214Z,13449.3848
2023-03-29T08:28:26.684Z,13420.0771
2023-03-29T08:29:28.082Z,13503.7695
2023-03-29T08:30:29.519Z,13608.6152
2023-03-29T08:31:31.004Z,13752.7695
2023-03-29T08:32:32.383Z,13933.8457
2023-03-29T08:33:33.809Z,13997.3076
2023-03-29T08:34:35.205Z,14048.3848
2023-03-29T08:35:36.662Z,13983.5381
2023-03-29T08:36:38.060Z,13876.4619
2023-03-29T08:37:39.491Z,13974.2305
2023-03-29T08:38:40.986Z,13882.6152
2023-03-29T08:39:42.359Z,13889.0000
2023-03-29T08:40:43.761Z,13860.1543
2023-03-29T08:41:45.171Z,13860.0771
2023-03-29T08:42:46.596Z,13850.6924
2023-03-29T08:43:48.050Z,13843.6924
2023-03-29T08:44:49.470Z,13827.8457
2023-03-29T08:45:51.236Z,13819.5381
2023-03-29T08:46:52.358Z,13815.5381
2023-03-29T08:47:53.818Z,13821.3848
2023-03-29T08:48:55.197Z,13815.9229
2023-03-29T08:49:56.597Z,13820.6152
2023-03-29T08:50:58.022Z,13817.5381
2023-03-29T08:51:59.451Z,13819.0000
2023-03-29T08:53:00.866Z,13812.9229
2023-03-29T08:54:02.326Z,13815.3076
2023-03-29T08:55:03.732Z,13820.5381
2023-03-29T08:56:05.201Z,13814.9229
2023-03-29T08:57:06.589Z,13810.3848
2023-03-29T08:58:08.004Z,13809.6152
2023-03-29T08:59:09.483Z,13807.2305
2023-03-29T09:00:10.867Z,13806.7695
2023-03-29T09:01:12.344Z,13801.8457
2023-03-29T09:02:13.749Z,13805.0000
2023-03-29T09:03:15.213Z,13805.3848
2023-03-29T09:04:16.605Z,13807.0771
2023-03-29T09:05:18.049Z,13802.2305
2023-03-29T09:06:19.454Z,13806.8457
2023-03-29T09:07:20.889Z,13805.0000
2023-03-29T09:08:22.302Z,13797.8457
2023-03-29T09:09:23.750Z,13794.9229
2023-03-29T09:10:25.183Z,13796.0771
2023-03-29T09:11:26.627Z,13796.1543
2023-03-29T09:12:28.013Z,13792.9229
2023-03-29T09:13:29.535Z,13791.5381
2023-03-29T09:14:30.873Z,13794.1543
2023-03-29T09:15:32.391Z,13791.3848
2023-03-29T09:16:33.764Z,13788.8457
2023-03-29T09:17:35.186Z,13793.3848
2023-03-29T09:18:36.632Z,13791.0771
2023-03-29T09:19:38.030Z,13794.7695
2023-03-29T09:20:39.516Z,13785.6152
2023-03-29T09:21:40.872Z,13787.9229
2023-03-29T09:22:42.313Z,13790.1543
2023-03-29T09:23:43.744Z,13780.8457
2023-03-29T09:24:45.177Z,13787.2305
2023-03-29T09:25:53.554Z,13786.8457
2023-03-29T09:26:48.041Z,13779.0830
2023-03-29T09:27:49.461Z,13780.8457
2023-03-29T09:28:50.896Z,13777.2305
2023-03-29T09:29:52.299Z,13783.6152
2023-03-29T09:30:53.750Z,13783.5381
2023-03-29T09:31:55.153Z,13780.6924
2023-03-29T09:32:56.652Z,13772.3848
2023-03-29T09:33:57.994Z,13771.0000
2023-03-29T09:34:59.444Z,13779.3848
2023-03-29T09:36:00.899Z,13769.7695
2023-03-29T09:37:02.272Z,13774.4619
2023-03-29T09:38:03.702Z,13773.4619
2023-03-29T09:39:05.157Z,13768.6924
2023-03-29T09:40:06.568Z,13768.2305
2023-03-29T09:41:07.997Z,13777.1543
2023-03-29T09:42:09.494Z,13817.8457
2023-03-29T09:43:10.853Z,13871.0771
2023-03-29T09:44:20.773Z,13810.5381
2023-03-29T09:45:13.718Z,13824.3330
2023-03-29T09:46:15.216Z,13807.8457
2023-03-29T09:47:16.547Z,13809.8457
2023-03-29T09:48:17.957Z,13823.8457
2023-03-29T09:49:19.409Z,13810.0000
2023-03-29T09:50:30.960Z,13790.0771
2023-03-29T09:51:22.342Z,13762.5830
2023-03-29T09:52:23.690Z,13741.6924
2023-03-29T09:53:25.126Z,13751.7695
2023-03-29T09:54:26.534Z,13765.9229
2023-03-29T09:55:27.967Z,13752.8457
2023-03-29T09:56:29.400Z,13745.3848
2023-03-29T09:57:30.943Z,13732.0000
2023-03-29T09:58:32.239Z,13731.3076
2023-03-29T09:59:33.684Z,13740.9229
2023-03-29T10:00:35.105Z,13734.1543
2023-03-29T10:01:36.553Z,13743.6924
2023-03-29T10:02:38.036Z,13713.6924
2023-03-29T10:03:39.404Z,13707.4619
2023-03-29T10:04:40.881Z,13712.6924
2023-03-29T10:05:42.245Z,13705.4619
2023-03-29T10:06:43.676Z,13669.4619
2023-03-29T10:07:45.149Z,13661.7695
2023-03-29T10:08:46.522Z,13657.3848
2023-03-29T10:09:47.980Z,13664.4619
2023-03-29T10:10:49.392Z,13659.7695
2023-03-29T10:11:50.875Z,13659.4619
2023-03-29T10:12:52.256Z,13652.5381
2023-03-29T10:13:53.700Z,13635.9229
2023-03-29T10:14:55.193Z,13633.3848
2023-03-29T10:15:56.549Z,13624.5381
2023-03-29T10:16:58.046Z,13610.5381
2023-03-29T10:17:59.607Z,13608.5381
2023-03-29T10:19:00.932Z,13607.0000
2023-03-29T10:20:04.217Z,13595.2305
2023-03-29T10:21:04.146Z,13585.0771
2023-03-29T10:22:05.223Z,13586.8457
2023-03-29T10:23:06.648Z,13575.8457
2023-03-29T10:24:08.071Z,13560.5381
2023-03-29T10:25:09.491Z,13542.3848
2023-03-29T10:26:10.910Z,13507.2305
2023-03-29T10:27:12.325Z,13455.2305
2023-03-29T10:28:13.764Z,13454.5381
2023-03-29T10:29:15.169Z,13513.1543
2023-03-29T10:30:16.626Z,13512.8457
2023-03-29T10:31:18.075Z,13509.2305
2023-03-29T10:32:19.483Z,13499.3848
2023-03-29T10:33:20.930Z,13476.7695
2023-03-29T10:34:22.319Z,13432.6924
2023-03-29T10:35:23.742Z,13379.3848
2023-03-29T10:36:25.173Z,13427.1543
2023-03-29T10:37:26.613Z,13424.8457
2023-03-29T10:38:28.037Z,13418.3848
2023-03-29T10:39:29.446Z,13429.7695
2023-03-29T10:40:30.947Z,13421.1543
2023-03-29T10:41:32.305Z,13413.6152
2023-03-29T10:42:33.754Z,13415.5381
2023-03-29T10:43:35.170Z,13374.6152
2023-03-29T10:44:36.638Z,13327.3076
2023-03-29T10:45:38.043Z,13331.6152
2023-03-29T10:46:39.496Z,13362.0000
2023-03-29T10:47:40.930Z,13374.5381
2023-03-29T10:48:42.309Z,13372.6152
2023-03-29T10:49:43.741Z,13374.4619
2023-03-29T10:50:45.165Z,13329.4619
2023-03-29T10:51:46.593Z,13297.2305
2023-03-29T10:52:48.022Z,13257.3076
2023-03-29T10:53:49.434Z,13225.4619
2023-03-29T10:54:50.891Z,13211.4619
2023-03-29T10:55:52.309Z,13179.4619
2023-03-29T10:56:53.739Z,13187.6152
2023-03-29T10:57:55.182Z,13141.3848
2023-03-29T10:58:56.625Z,13104.0771
2023-03-29T10:59:58.042Z,13089.8457
2023-03-29T11:00:59.491Z,13117.2305
2023-03-29T11:02:00.910Z,13112.9229
2023-03-29T11:03:02.377Z,13104.7695
2023-03-29T11:04:03.873Z,13102.0771
2023-03-29T11:05:05.211Z,13078.0771
2023-03-29T11:06:06.597Z,13071.2305
2023-03-29T11:07:08.062Z,13034.7695
2023-03-29T11:08:09.486Z,13022.9229
2023-03-29T11:09:10.886Z,13028.4619
2023-03-29T11:10:12.369Z,12986.9229
2023-03-29T11:11:13.739Z,12978.1543
2023-03-29T11:12:16.423Z,12978.9229
2023-03-29T11:13:16.588Z,12973.0771
2023-03-29T11:14:18.032Z,12963.8457
2023-03-29T11:15:19.445Z,12944.3076
2023-03-29T11:16:20.998Z,12935.2305
2023-03-29T11:17:22.390Z,12914.2305
2023-03-29T11:18:23.739Z,12923.2305
2023-03-29T11:19:25.177Z,12941.8457
2023-03-29T11:20:26.573Z,12944.8457
2023-03-29T11:21:28.069Z,12948.9229